sensor_id;sensor_type;location;lat;lon;timestamp;P1;durP1;ratioP1;P2;durP2;ratioP2
6614;SDS011;3343;42.896;23.912;2022-11-12T00:00:13;2.57;;;2.20;;
6614;SDS011;3343;42.896;23.912;2022-11-12T00:02:42;2.87;;;2.07;;
6614;SDS011;3343;42.896;23.912;2022-11-12T00:05:09;3.27;;;2.30;;
6614;SDS011;3343;42.896;23.912;2022-11-12T00:07:36;4.53;;;2.90;;
6614;SDS011;3343;42.896;23.912;2022-11-12T00:10:03;2.77;;;2.30;;
6614;SDS011;3343;42.896;23.912;2022-11-12T00:12:30;3.90;;;2.97;;
6614;SDS011;3343;42.896;23.912;2022-11-12T00:14:57;4.27;;;3.23;;
6614;SDS011;3343;42.896;23.912;2022-11-12T00:17:24;4.87;;;2.80;;
6614;SDS011;3343;42.896;23.912;2022-11-12T00:19:53;4.77;;;3.07;;
6614;SDS011;3343;42.896;23.912;2022-11-12T00:22:20;6.27;;;4.47;;
6614;SDS011;3343;42.896;23.912;2022-11-12T00:24:47;6.13;;;4.17;;
6614;SDS011;3343;42.896;23.912;2022-11-12T00:27:14;5.70;;;3.40;;
6614;SDS011;3343;42.896;23.912;2022-11-12T00:29:40;5.67;;;3.23;;
6614;SDS011;3343;42.896;23.912;2022-11-12T00:32:07;8.87;;;3.10;;
6614;SDS011;3343;42.896;23.912;2022-11-12T00:34:35;4.77;;;2.97;;
6614;SDS011;3343;42.896;23.912;2022-11-12T00:37:04;4.80;;;3.50;;
6614;SDS011;3343;42.896;23.912;2022-11-12T00:39:31;5.93;;;3.70;;
6614;SDS011;3343;42.896;23.912;2022-11-12T00:41:58;6.87;;;4.03;;
6614;SDS011;3343;42.896;23.912;2022-11-12T00:44:25;7.37;;;3.87;;
6614;SDS011;3343;42.896;23.912;2022-11-12T00:46:53;5.23;;;3.37;;
6614;SDS011;3343;42.896;23.912;2022-11-12T00:49:20;5.63;;;3.80;;
6614;SDS011;3343;42.896;23.912;2022-11-12T00:51:48;6.30;;;4.20;;
6614;SDS011;3343;42.896;23.912;2022-11-12T00:54:16;8.40;;;4.27;;
6614;SDS011;3343;42.896;23.912;2022-11-12T00:56:44;6.53;;;4.27;;
6614;SDS011;3343;42.896;23.912;2022-11-12T00:59:11;7.57;;;4.07;;
6614;SDS011;3343;42.896;23.912;2022-11-12T01:01:38;6.13;;;4.03;;
6614;SDS011;3343;42.896;23.912;2022-11-12T01:04:06;8.57;;;4.90;;
6614;SDS011;3343;42.896;23.912;2022-11-12T01:06:33;8.27;;;4.17;;
6614;SDS011;3343;42.896;23.912;2022-11-12T01:08:59;11.13;;;5.83;;
6614;SDS011;3343;42.896;23.912;2022-11-12T01:11:28;18.03;;;8.33;;
6614;SDS011;3343;42.896;23.912;2022-11-12T01:13:56;9.47;;;4.60;;
6614;SDS011;3343;42.896;23.912;2022-11-12T01:16:26;5.90;;;3.83;;
6614;SDS011;3343;42.896;23.912;2022-11-12T01:18:55;5.93;;;3.33;;
6614;SDS011;3343;42.896;23.912;2022-11-12T01:21:23;4.77;;;3.67;;
6614;SDS011;3343;42.896;23.912;2022-11-12T01:23:52;11.43;;;3.90;;
6614;SDS011;3343;42.896;23.912;2022-11-12T01:26:21;8.70;;;3.67;;
6614;SDS011;3343;42.896;23.912;2022-11-12T01:28:50;9.83;;;3.70;;
6614;SDS011;3343;42.896;23.912;2022-11-12T01:31:18;4.60;;;2.93;;
6614;SDS011;3343;42.896;23.912;2022-11-12T01:33:47;7.07;;;3.63;;
6614;SDS011;3343;42.896;23.912;2022-11-12T01:36:15;7.23;;;3.63;;
6614;SDS011;3343;42.896;23.912;2022-11-12T01:38:44;7.50;;;3.23;;
6614;SDS011;3343;42.896;23.912;2022-11-12T01:41:12;5.33;;;2.80;;
6614;SDS011;3343;42.896;23.912;2022-11-12T01:43:40;4.83;;;2.90;;
6614;SDS011;3343;42.896;23.912;2022-11-12T01:46:12;3.17;;;2.30;;
6614;SDS011;3343;42.896;23.912;2022-11-12T01:48:45;3.33;;;2.30;;
6614;SDS011;3343;42.896;23.912;2022-11-12T01:51:15;5.87;;;3.70;;
6614;SDS011;3343;42.896;23.912;2022-11-12T01:53:44;9.23;;;4.10;;
6614;SDS011;3343;42.896;23.912;2022-11-12T01:56:14;5.43;;;3.60;;
6614;SDS011;3343;42.896;23.912;2022-11-12T01:58:42;7.17;;;3.17;;
6614;SDS011;3343;42.896;23.912;2022-11-12T02:01:13;3.10;;;2.50;;
6614;SDS011;3343;42.896;23.912;2022-11-12T02:03:40;5.83;;;2.73;;
6614;SDS011;3343;42.896;23.912;2022-11-12T02:06:08;5.40;;;3.60;;
6614;SDS011;3343;42.896;23.912;2022-11-12T02:08:38;5.57;;;3.33;;
6614;SDS011;3343;42.896;23.912;2022-11-12T02:11:11;5.50;;;3.60;;
6614;SDS011;3343;42.896;23.912;2022-11-12T02:13:39;5.70;;;3.37;;
6614;SDS011;3343;42.896;23.912;2022-11-12T02:16:27;5.10;;;3.30;;
6614;SDS011;3343;42.896;23.912;2022-11-12T02:18:57;3.17;;;2.70;;
6614;SDS011;3343;42.896;23.912;2022-11-12T02:21:26;4.63;;;2.93;;
6614;SDS011;3343;42.896;23.912;2022-11-12T02:23:57;5.63;;;3.27;;
6614;SDS011;3343;42.896;23.912;2022-11-12T02:26:28;5.07;;;2.90;;
6614;SDS011;3343;42.896;23.912;2022-11-12T02:28:58;4.93;;;2.77;;
6614;SDS011;3343;42.896;23.912;2022-11-12T02:31:25;5.07;;;3.07;;
6614;SDS011;3343;42.896;23.912;2022-11-12T02:33:53;5.83;;;3.40;;
6614;SDS011;3343;42.896;23.912;2022-11-12T02:36:19;6.40;;;3.50;;
6614;SDS011;3343;42.896;23.912;2022-11-12T02:38:48;5.13;;;3.27;;
6614;SDS011;3343;42.896;23.912;2022-11-12T02:41:15;5.30;;;3.37;;
6614;SDS011;3343;42.896;23.912;2022-11-12T02:43:41;4.60;;;3.10;;
6614;SDS011;3343;42.896;23.912;2022-11-12T02:46:08;4.37;;;2.70;;
6614;SDS011;3343;42.896;23.912;2022-11-12T02:48:36;3.67;;;2.40;;
6614;SDS011;3343;42.896;23.912;2022-11-12T02:51:03;2.57;;;2.00;;
6614;SDS011;3343;42.896;23.912;2022-11-12T02:53:30;3.50;;;2.20;;
6614;SDS011;3343;42.896;23.912;2022-11-12T02:55:59;2.83;;;2.13;;
6614;SDS011;3343;42.896;23.912;2022-11-12T02:58:26;2.77;;;2.20;;
6614;SDS011;3343;42.896;23.912;2022-11-12T03:00:53;3.43;;;2.10;;
6614;SDS011;3343;42.896;23.912;2022-11-12T03:03:20;4.13;;;1.80;;
6614;SDS011;3343;42.896;23.912;2022-11-12T03:05:53;4.47;;;2.73;;
6614;SDS011;3343;42.896;23.912;2022-11-12T03:08:21;3.27;;;2.17;;
6614;SDS011;3343;42.896;23.912;2022-11-12T03:10:47;3.97;;;2.50;;
6614;SDS011;3343;42.896;23.912;2022-11-12T03:13:16;3.07;;;2.07;;
6614;SDS011;3343;42.896;23.912;2022-11-12T03:15:43;2.03;;;1.83;;
6614;SDS011;3343;42.896;23.912;2022-11-12T03:18:09;3.00;;;2.40;;
6614;SDS011;3343;42.896;23.912;2022-11-12T03:20:37;2.93;;;2.27;;
6614;SDS011;3343;42.896;23.912;2022-11-12T03:23:04;4.90;;;2.33;;
6614;SDS011;3343;42.896;23.912;2022-11-12T03:25:34;3.00;;;2.20;;
6614;SDS011;3343;42.896;23.912;2022-11-12T03:28:01;2.97;;;2.30;;
6614;SDS011;3343;42.896;23.912;2022-11-12T03:30:33;3.03;;;2.00;;
6614;SDS011;3343;42.896;23.912;2022-11-12T03:33:01;3.13;;;2.47;;
6614;SDS011;3343;42.896;23.912;2022-11-12T03:35:29;3.10;;;2.10;;
6614;SDS011;3343;42.896;23.912;2022-11-12T03:37:56;3.80;;;1.80;;
6614;SDS011;3343;42.896;23.912;2022-11-12T03:40:23;4.87;;;2.30;;
6614;SDS011;3343;42.896;23.912;2022-11-12T03:42:51;3.23;;;2.37;;
6614;SDS011;3343;42.896;23.912;2022-11-12T03:45:19;3.80;;;2.10;;
6614;SDS011;3343;42.896;23.912;2022-11-12T03:47:50;2.90;;;2.07;;
6614;SDS011;3343;42.896;23.912;2022-11-12T03:50:18;3.20;;;2.43;;
6614;SDS011;3343;42.896;23.912;2022-11-12T03:52:48;3.17;;;2.50;;
6614;SDS011;3343;42.896;23.912;2022-11-12T03:55:17;5.10;;;2.27;;
6614;SDS011;3343;42.896;23.912;2022-11-12T03:57:46;5.40;;;3.07;;
6614;SDS011;3343;42.896;23.912;2022-11-12T04:00:14;3.47;;;2.10;;
6614;SDS011;3343;42.896;23.912;2022-11-12T04:02:41;2.77;;;2.40;;
6614;SDS011;3343;42.896;23.912;2022-11-12T04:05:09;2.97;;;2.43;;
6614;SDS011;3343;42.896;23.912;2022-11-12T04:07:57;4.67;;;2.67;;
6614;SDS011;3343;42.896;23.912;2022-11-12T04:10:42;9.33;;;2.80;;
6614;SDS011;3343;42.896;23.912;2022-11-12T04:13:09;2.40;;;2.20;;
6614;SDS011;3343;42.896;23.912;2022-11-12T04:15:56;2.50;;;1.93;;
6614;SDS011;3343;42.896;23.912;2022-11-12T04:18:41;5.50;;;2.67;;
6614;SDS011;3343;42.896;23.912;2022-11-12T04:21:29;18.07;;;8.03;;
6614;SDS011;3343;42.896;23.912;2022-11-12T04:24:16;10.70;;;4.63;;
6614;SDS011;3343;42.896;23.912;2022-11-12T04:27:02;4.20;;;2.10;;
6614;SDS011;3343;42.896;23.912;2022-11-12T04:29:29;41.20;;;20.93;;
6614;SDS011;3343;42.896;23.912;2022-11-12T04:32:14;16.50;;;7.40;;
6614;SDS011;3343;42.896;23.912;2022-11-12T04:34:41;9.23;;;5.33;;
6614;SDS011;3343;42.896;23.912;2022-11-12T04:37:09;11.67;;;6.83;;
6614;SDS011;3343;42.896;23.912;2022-11-12T04:39:36;8.83;;;4.50;;
6614;SDS011;3343;42.896;23.912;2022-11-12T04:42:03;10.30;;;5.80;;
6614;SDS011;3343;42.896;23.912;2022-11-12T04:44:48;14.87;;;8.30;;
6614;SDS011;3343;42.896;23.912;2022-11-12T04:47:29;11.70;;;8.23;;
6614;SDS011;3343;42.896;23.912;2022-11-12T04:49:58;7.93;;;6.07;;
6614;SDS011;3343;42.896;23.912;2022-11-12T04:52:27;10.37;;;6.43;;
6614;SDS011;3343;42.896;23.912;2022-11-12T04:54:55;10.13;;;6.90;;
6614;SDS011;3343;42.896;23.912;2022-11-12T04:57:22;8.87;;;5.37;;
6614;SDS011;3343;42.896;23.912;2022-11-12T04:59:49;7.17;;;5.00;;
6614;SDS011;3343;42.896;23.912;2022-11-12T05:02:16;7.43;;;4.70;;
6614;SDS011;3343;42.896;23.912;2022-11-12T05:04:43;7.70;;;4.10;;
6614;SDS011;3343;42.896;23.912;2022-11-12T05:07:10;8.83;;;5.70;;
6614;SDS011;3343;42.896;23.912;2022-11-12T05:09:39;6.97;;;4.40;;
6614;SDS011;3343;42.896;23.912;2022-11-12T05:12:06;4.77;;;3.10;;
6614;SDS011;3343;42.896;23.912;2022-11-12T05:14:33;3.80;;;2.97;;
6614;SDS011;3343;42.896;23.912;2022-11-12T05:17:00;5.63;;;3.47;;
6614;SDS011;3343;42.896;23.912;2022-11-12T05:19:27;6.93;;;3.83;;
6614;SDS011;3343;42.896;23.912;2022-11-12T05:21:54;8.90;;;4.00;;
6614;SDS011;3343;42.896;23.912;2022-11-12T05:24:41;9.20;;;4.70;;
6614;SDS011;3343;42.896;23.912;2022-11-12T05:27:10;5.87;;;3.87;;
6614;SDS011;3343;42.896;23.912;2022-11-12T05:29:38;7.20;;;4.43;;
6614;SDS011;3343;42.896;23.912;2022-11-12T05:32:05;11.60;;;5.70;;
6614;SDS011;3343;42.896;23.912;2022-11-12T05:34:33;12.23;;;6.30;;
6614;SDS011;3343;42.896;23.912;2022-11-12T05:37:00;8.80;;;4.83;;
6614;SDS011;3343;42.896;23.912;2022-11-12T05:39:28;9.20;;;4.90;;
6614;SDS011;3343;42.896;23.912;2022-11-12T05:41:56;13.67;;;6.43;;
6614;SDS011;3343;42.896;23.912;2022-11-12T05:44:23;16.57;;;7.23;;
6614;SDS011;3343;42.896;23.912;2022-11-12T05:46:50;13.43;;;7.00;;
6614;SDS011;3343;42.896;23.912;2022-11-12T05:49:17;15.50;;;7.10;;
6614;SDS011;3343;42.896;23.912;2022-11-12T05:51:44;13.37;;;6.63;;
6614;SDS011;3343;42.896;23.912;2022-11-12T05:54:11;9.30;;;5.53;;
6614;SDS011;3343;42.896;23.912;2022-11-12T05:56:38;10.60;;;5.67;;
6614;SDS011;3343;42.896;23.912;2022-11-12T05:59:07;10.57;;;5.70;;
6614;SDS011;3343;42.896;23.912;2022-11-12T06:01:35;10.03;;;6.23;;
6614;SDS011;3343;42.896;23.912;2022-11-12T06:04:08;9.63;;;5.97;;
6614;SDS011;3343;42.896;23.912;2022-11-12T06:06:36;12.00;;;5.93;;
6614;SDS011;3343;42.896;23.912;2022-11-12T06:09:03;10.63;;;6.13;;
6614;SDS011;3343;42.896;23.912;2022-11-12T06:11:30;12.60;;;6.53;;
6614;SDS011;3343;42.896;23.912;2022-11-12T06:13:57;10.17;;;6.10;;
6614;SDS011;3343;42.896;23.912;2022-11-12T06:16:26;13.23;;;6.97;;
6614;SDS011;3343;42.896;23.912;2022-11-12T06:18:54;11.47;;;5.80;;
6614;SDS011;3343;42.896;23.912;2022-11-12T06:21:21;9.83;;;6.37;;
6614;SDS011;3343;42.896;23.912;2022-11-12T06:23:48;10.70;;;6.83;;
6614;SDS011;3343;42.896;23.912;2022-11-12T06:26:16;14.83;;;7.30;;
6614;SDS011;3343;42.896;23.912;2022-11-12T06:28:44;12.10;;;7.70;;
6614;SDS011;3343;42.896;23.912;2022-11-12T06:31:11;15.23;;;7.83;;
6614;SDS011;3343;42.896;23.912;2022-11-12T06:33:40;13.20;;;6.63;;
6614;SDS011;3343;42.896;23.912;2022-11-12T06:36:07;13.27;;;6.83;;
6614;SDS011;3343;42.896;23.912;2022-11-12T06:38:37;11.97;;;7.20;;
6614;SDS011;3343;42.896;23.912;2022-11-12T06:41:05;12.87;;;7.30;;
6614;SDS011;3343;42.896;23.912;2022-11-12T06:43:33;12.10;;;6.43;;
6614;SDS011;3343;42.896;23.912;2022-11-12T06:46:01;10.97;;;6.13;;
6614;SDS011;3343;42.896;23.912;2022-11-12T06:48:29;12.43;;;6.90;;
6614;SDS011;3343;42.896;23.912;2022-11-12T06:50:58;10.43;;;5.53;;
6614;SDS011;3343;42.896;23.912;2022-11-12T06:53:33;10.57;;;5.67;;
6614;SDS011;3343;42.896;23.912;2022-11-12T06:56:03;12.20;;;6.13;;
6614;SDS011;3343;42.896;23.912;2022-11-12T06:58:31;13.47;;;6.80;;
6614;SDS011;3343;42.896;23.912;2022-11-12T07:01:02;10.23;;;5.47;;
6614;SDS011;3343;42.896;23.912;2022-11-12T07:03:33;11.30;;;5.83;;
6614;SDS011;3343;42.896;23.912;2022-11-12T07:06:06;9.93;;;5.43;;
6614;SDS011;3343;42.896;23.912;2022-11-12T07:08:35;13.37;;;6.57;;
6614;SDS011;3343;42.896;23.912;2022-11-12T07:11:02;8.80;;;5.30;;
6614;SDS011;3343;42.896;23.912;2022-11-12T07:13:29;11.50;;;7.30;;
6614;SDS011;3343;42.896;23.912;2022-11-12T07:15:57;11.13;;;6.57;;
6614;SDS011;3343;42.896;23.912;2022-11-12T07:18:25;11.93;;;7.17;;
6614;SDS011;3343;42.896;23.912;2022-11-12T07:20:56;18.07;;;11.37;;
6614;SDS011;3343;42.896;23.912;2022-11-12T07:23:25;18.70;;;10.37;;
6614;SDS011;3343;42.896;23.912;2022-11-12T07:25:57;15.20;;;9.20;;
6614;SDS011;3343;42.896;23.912;2022-11-12T07:28:25;18.23;;;10.77;;
6614;SDS011;3343;42.896;23.912;2022-11-12T07:30:55;21.20;;;12.17;;
6614;SDS011;3343;42.896;23.912;2022-11-12T07:33:23;10.63;;;6.97;;
6614;SDS011;3343;42.896;23.912;2022-11-12T07:35:55;9.10;;;6.03;;
6614;SDS011;3343;42.896;23.912;2022-11-12T07:38:23;9.77;;;6.13;;
6614;SDS011;3343;42.896;23.912;2022-11-12T07:40:56;16.47;;;6.67;;
6614;SDS011;3343;42.896;23.912;2022-11-12T07:43:24;20.03;;;10.83;;
6614;SDS011;3343;42.896;23.912;2022-11-12T07:45:51;11.93;;;6.87;;
6614;SDS011;3343;42.896;23.912;2022-11-12T07:48:17;14.60;;;6.53;;
6614;SDS011;3343;42.896;23.912;2022-11-12T07:50:44;12.37;;;6.77;;
6614;SDS011;3343;42.896;23.912;2022-11-12T07:53:11;13.27;;;7.90;;
6614;SDS011;3343;42.896;23.912;2022-11-12T07:55:38;13.80;;;7.67;;
6614;SDS011;3343;42.896;23.912;2022-11-12T07:58:06;11.00;;;5.50;;
6614;SDS011;3343;42.896;23.912;2022-11-12T08:00:33;20.13;;;6.40;;
6614;SDS011;3343;42.896;23.912;2022-11-12T08:03:00;9.07;;;5.77;;
6614;SDS011;3343;42.896;23.912;2022-11-12T08:05:27;13.40;;;7.03;;
6614;SDS011;3343;42.896;23.912;2022-11-12T08:07:54;13.07;;;6.00;;
6614;SDS011;3343;42.896;23.912;2022-11-12T08:10:21;8.93;;;5.70;;
6614;SDS011;3343;42.896;23.912;2022-11-12T08:12:48;15.20;;;9.77;;
6614;SDS011;3343;42.896;23.912;2022-11-12T08:15:17;9.20;;;5.83;;
6614;SDS011;3343;42.896;23.912;2022-11-12T08:17:44;11.20;;;5.90;;
6614;SDS011;3343;42.896;23.912;2022-11-12T08:20:10;11.73;;;6.67;;
6614;SDS011;3343;42.896;23.912;2022-11-12T08:22:38;10.90;;;6.33;;
6614;SDS011;3343;42.896;23.912;2022-11-12T08:25:05;10.87;;;6.73;;
6614;SDS011;3343;42.896;23.912;2022-11-12T08:27:33;13.60;;;6.73;;
6614;SDS011;3343;42.896;23.912;2022-11-12T08:30:00;10.73;;;5.80;;
6614;SDS011;3343;42.896;23.912;2022-11-12T08:32:28;16.10;;;6.77;;
6614;SDS011;3343;42.896;23.912;2022-11-12T08:34:55;12.10;;;6.43;;
6614;SDS011;3343;42.896;23.912;2022-11-12T08:37:22;10.17;;;5.70;;
6614;SDS011;3343;42.896;23.912;2022-11-12T08:39:49;9.83;;;5.50;;
6614;SDS011;3343;42.896;23.912;2022-11-12T08:42:16;10.33;;;6.93;;
6614;SDS011;3343;42.896;23.912;2022-11-12T08:44:43;8.63;;;5.50;;
6614;SDS011;3343;42.896;23.912;2022-11-12T08:47:09;12.33;;;5.83;;
6614;SDS011;3343;42.896;23.912;2022-11-12T08:49:38;9.67;;;5.93;;
6614;SDS011;3343;42.896;23.912;2022-11-12T08:52:05;8.70;;;5.10;;
6614;SDS011;3343;42.896;23.912;2022-11-12T08:54:32;10.90;;;6.20;;
6614;SDS011;3343;42.896;23.912;2022-11-12T08:56:59;9.70;;;5.77;;
6614;SDS011;3343;42.896;23.912;2022-11-12T08:59:25;10.43;;;6.27;;
6614;SDS011;3343;42.896;23.912;2022-11-12T09:01:52;12.40;;;5.90;;
6614;SDS011;3343;42.896;23.912;2022-11-12T09:04:19;12.20;;;7.30;;
6614;SDS011;3343;42.896;23.912;2022-11-12T09:06:47;8.53;;;5.63;;
6614;SDS011;3343;42.896;23.912;2022-11-12T09:09:14;8.47;;;4.57;;
6614;SDS011;3343;42.896;23.912;2022-11-12T09:11:41;6.80;;;4.43;;
6614;SDS011;3343;42.896;23.912;2022-11-12T09:14:08;6.43;;;4.43;;
6614;SDS011;3343;42.896;23.912;2022-11-12T09:16:35;9.87;;;5.27;;
6614;SDS011;3343;42.896;23.912;2022-11-12T09:19:02;10.77;;;5.60;;
6614;SDS011;3343;42.896;23.912;2022-11-12T09:21:29;7.63;;;5.10;;
6614;SDS011;3343;42.896;23.912;2022-11-12T09:23:57;7.80;;;4.83;;
6614;SDS011;3343;42.896;23.912;2022-11-12T09:26:24;6.20;;;4.13;;
6614;SDS011;3343;42.896;23.912;2022-11-12T09:28:51;8.30;;;4.87;;
6614;SDS011;3343;42.896;23.912;2022-11-12T09:31:20;9.23;;;5.20;;
6614;SDS011;3343;42.896;23.912;2022-11-12T09:33:47;6.03;;;3.67;;
6614;SDS011;3343;42.896;23.912;2022-11-12T09:36:14;7.83;;;4.40;;
6614;SDS011;3343;42.896;23.912;2022-11-12T09:38:42;8.33;;;5.03;;
6614;SDS011;3343;42.896;23.912;2022-11-12T09:41:13;10.13;;;5.47;;
6614;SDS011;3343;42.896;23.912;2022-11-12T09:43:47;8.90;;;6.37;;
6614;SDS011;3343;42.896;23.912;2022-11-12T09:49:05;7.27;;;4.77;;
6614;SDS011;3343;42.896;23.912;2022-11-12T09:51:38;6.50;;;4.57;;
6614;SDS011;3343;42.896;23.912;2022-11-12T09:54:23;9.43;;;4.57;;
6614;SDS011;3343;42.896;23.912;2022-11-12T09:56:52;9.87;;;5.40;;
6614;SDS011;3343;42.896;23.912;2022-11-12T09:59:20;9.57;;;6.00;;
6614;SDS011;3343;42.896;23.912;2022-11-12T10:01:51;8.53;;;4.00;;
6614;SDS011;3343;42.896;23.912;2022-11-12T10:04:30;10.67;;;4.37;;
6614;SDS011;3343;42.896;23.912;2022-11-12T10:07:16;6.63;;;4.10;;
6614;SDS011;3343;42.896;23.912;2022-11-12T10:09:58;6.20;;;3.80;;
6614;SDS011;3343;42.896;23.912;2022-11-12T10:12:32;6.83;;;3.70;;
6614;SDS011;3343;42.896;23.912;2022-11-12T10:15:10;7.00;;;5.10;;
6614;SDS011;3343;42.896;23.912;2022-11-12T10:18:15;7.13;;;4.33;;
6614;SDS011;3343;42.896;23.912;2022-11-12T10:20:54;10.37;;;5.90;;
6614;SDS011;3343;42.896;23.912;2022-11-12T10:23:25;11.50;;;5.53;;
6614;SDS011;3343;42.896;23.912;2022-11-12T10:25:59;10.03;;;5.37;;
6614;SDS011;3343;42.896;23.912;2022-11-12T10:28:37;7.20;;;5.50;;
6614;SDS011;3343;42.896;23.912;2022-11-12T10:31:10;8.93;;;5.70;;
6614;SDS011;3343;42.896;23.912;2022-11-12T10:33:38;10.20;;;5.57;;
6614;SDS011;3343;42.896;23.912;2022-11-12T10:36:11;9.93;;;5.70;;
6614;SDS011;3343;42.896;23.912;2022-11-12T10:38:44;9.97;;;5.50;;
6614;SDS011;3343;42.896;23.912;2022-11-12T10:41:19;6.67;;;3.80;;
6614;SDS011;3343;42.896;23.912;2022-11-12T10:43:56;7.70;;;4.37;;
6614;SDS011;3343;42.896;23.912;2022-11-12T10:46:26;8.90;;;4.57;;
6614;SDS011;3343;42.896;23.912;2022-11-12T10:48:56;9.37;;;5.50;;
6614;SDS011;3343;42.896;23.912;2022-11-12T10:51:27;9.20;;;5.00;;
6614;SDS011;3343;42.896;23.912;2022-11-12T10:53:55;7.47;;;4.87;;
6614;SDS011;3343;42.896;23.912;2022-11-12T10:56:24;7.03;;;4.67;;
6614;SDS011;3343;42.896;23.912;2022-11-12T10:59:08;7.70;;;3.97;;
6614;SDS011;3343;42.896;23.912;2022-11-12T11:01:39;9.07;;;4.27;;
6614;SDS011;3343;42.896;23.912;2022-11-12T11:04:14;7.27;;;4.20;;
6614;SDS011;3343;42.896;23.912;2022-11-12T11:06:42;12.67;;;6.80;;
6614;SDS011;3343;42.896;23.912;2022-11-12T11:09:14;8.07;;;5.63;;
6614;SDS011;3343;42.896;23.912;2022-11-12T11:11:48;7.03;;;4.47;;
6614;SDS011;3343;42.896;23.912;2022-11-12T11:14:24;6.83;;;4.13;;
6614;SDS011;3343;42.896;23.912;2022-11-12T11:16:57;9.73;;;4.87;;
6614;SDS011;3343;42.896;23.912;2022-11-12T11:19:28;7.93;;;4.37;;
6614;SDS011;3343;42.896;23.912;2022-11-12T11:24:58;4.37;;;3.10;;
6614;SDS011;3343;42.896;23.912;2022-11-12T11:27:36;5.77;;;3.47;;
6614;SDS011;3343;42.896;23.912;2022-11-12T11:30:15;5.63;;;3.83;;
6614;SDS011;3343;42.896;23.912;2022-11-12T11:35:52;5.47;;;3.70;;
6614;SDS011;3343;42.896;23.912;2022-11-12T11:38:32;7.67;;;4.90;;
6614;SDS011;3343;42.896;23.912;2022-11-12T11:41:10;7.07;;;4.13;;
6614;SDS011;3343;42.896;23.912;2022-11-12T11:43:48;8.77;;;4.50;;
6614;SDS011;3343;42.896;23.912;2022-11-12T11:46:28;17.60;;;8.43;;
6614;SDS011;3343;42.896;23.912;2022-11-12T11:49:08;30.40;;;12.97;;
6614;SDS011;3343;42.896;23.912;2022-11-12T11:51:50;8.20;;;5.10;;
6614;SDS011;3343;42.896;23.912;2022-11-12T11:54:28;6.13;;;4.00;;
6614;SDS011;3343;42.896;23.912;2022-11-12T11:57:14;21.80;;;7.77;;
6614;SDS011;3343;42.896;23.912;2022-11-12T11:59:51;9.30;;;5.00;;
6614;SDS011;3343;42.896;23.912;2022-11-12T12:02:37;7.73;;;3.97;;
6614;SDS011;3343;42.896;23.912;2022-11-12T12:05:19;4.47;;;2.90;;
6614;SDS011;3343;42.896;23.912;2022-11-12T12:07:56;6.07;;;3.37;;
6614;SDS011;3343;42.896;23.912;2022-11-12T12:10:29;4.57;;;3.40;;
6614;SDS011;3343;42.896;23.912;2022-11-12T12:13:08;5.20;;;3.90;;
6614;SDS011;3343;42.896;23.912;2022-11-12T12:15:46;8.23;;;3.70;;
6614;SDS011;3343;42.896;23.912;2022-11-12T12:18:29;6.47;;;4.10;;
6614;SDS011;3343;42.896;23.912;2022-11-12T12:21:07;5.93;;;4.03;;
6614;SDS011;3343;42.896;23.912;2022-11-12T12:23:39;5.87;;;3.90;;
6614;SDS011;3343;42.896;23.912;2022-11-12T12:26:10;9.17;;;4.40;;
6614;SDS011;3343;42.896;23.912;2022-11-12T12:28:42;5.33;;;3.37;;
6614;SDS011;3343;42.896;23.912;2022-11-12T12:31:14;7.03;;;4.10;;
6614;SDS011;3343;42.896;23.912;2022-11-12T12:33:47;6.27;;;4.00;;
6614;SDS011;3343;42.896;23.912;2022-11-12T12:36:19;14.67;;;8.53;;
6614;SDS011;3343;42.896;23.912;2022-11-12T12:38:51;6.67;;;4.47;;
6614;SDS011;3343;42.896;23.912;2022-11-12T12:41:28;5.60;;;3.93;;
6614;SDS011;3343;42.896;23.912;2022-11-12T12:44:01;5.00;;;3.20;;
6614;SDS011;3343;42.896;23.912;2022-11-12T12:46:30;5.77;;;3.53;;
6614;SDS011;3343;42.896;23.912;2022-11-12T12:49:02;6.27;;;4.40;;
6614;SDS011;3343;42.896;23.912;2022-11-12T12:51:33;4.17;;;3.00;;
6614;SDS011;3343;42.896;23.912;2022-11-12T12:54:00;8.70;;;4.87;;
6614;SDS011;3343;42.896;23.912;2022-11-12T12:56:43;6.07;;;3.53;;
6614;SDS011;3343;42.896;23.912;2022-11-12T12:59:21;8.63;;;3.80;;
6614;SDS011;3343;42.896;23.912;2022-11-12T13:01:53;6.50;;;3.80;;
6614;SDS011;3343;42.896;23.912;2022-11-12T13:07:20;12.40;;;5.77;;
6614;SDS011;3343;42.896;23.912;2022-11-12T13:13:28;5.23;;;3.67;;
6614;SDS011;3343;42.896;23.912;2022-11-12T13:15:57;4.87;;;3.60;;
6614;SDS011;3343;42.896;23.912;2022-11-12T13:21:26;6.07;;;3.47;;
6614;SDS011;3343;42.896;23.912;2022-11-12T13:23:53;6.90;;;3.27;;
6614;SDS011;3343;42.896;23.912;2022-11-12T13:26:47;8.10;;;4.97;;
6614;SDS011;3343;42.896;23.912;2022-11-12T13:29:17;5.63;;;3.40;;
6614;SDS011;3343;42.896;23.912;2022-11-12T13:31:48;5.67;;;3.83;;
6614;SDS011;3343;42.896;23.912;2022-11-12T13:34:19;6.43;;;3.83;;
6614;SDS011;3343;42.896;23.912;2022-11-12T13:36:56;10.30;;;5.60;;
6614;SDS011;3343;42.896;23.912;2022-11-12T13:39:27;8.20;;;4.27;;
6614;SDS011;3343;42.896;23.912;2022-11-12T13:41:55;6.43;;;3.87;;
6614;SDS011;3343;42.896;23.912;2022-11-12T13:44:40;9.23;;;3.77;;
6614;SDS011;3343;42.896;23.912;2022-11-12T13:47:09;6.53;;;3.80;;
6614;SDS011;3343;42.896;23.912;2022-11-12T13:49:39;6.03;;;3.40;;
6614;SDS011;3343;42.896;23.912;2022-11-12T13:52:11;5.43;;;3.60;;
6614;SDS011;3343;42.896;23.912;2022-11-12T13:54:41;8.00;;;4.30;;
6614;SDS011;3343;42.896;23.912;2022-11-12T13:57:14;7.10;;;4.10;;
6614;SDS011;3343;42.896;23.912;2022-11-12T14:00:08;7.17;;;4.07;;
6614;SDS011;3343;42.896;23.912;2022-11-12T14:02:46;5.30;;;3.57;;
6614;SDS011;3343;42.896;23.912;2022-11-12T14:05:17;6.57;;;3.63;;
6614;SDS011;3343;42.896;23.912;2022-11-12T14:07:49;5.70;;;3.13;;
6614;SDS011;3343;42.896;23.912;2022-11-12T14:10:31;6.20;;;3.83;;
6614;SDS011;3343;42.896;23.912;2022-11-12T14:13:09;5.70;;;3.67;;
6614;SDS011;3343;42.896;23.912;2022-11-12T14:15:52;6.80;;;3.97;;
6614;SDS011;3343;42.896;23.912;2022-11-12T14:18:30;6.00;;;3.67;;
6614;SDS011;3343;42.896;23.912;2022-11-12T14:21:08;5.40;;;3.53;;
6614;SDS011;3343;42.896;23.912;2022-11-12T14:23:42;8.60;;;3.20;;
6614;SDS011;3343;42.896;23.912;2022-11-12T14:26:11;7.27;;;4.27;;
6614;SDS011;3343;42.896;23.912;2022-11-12T14:28:39;7.67;;;5.13;;
6614;SDS011;3343;42.896;23.912;2022-11-12T14:31:11;11.37;;;6.30;;
6614;SDS011;3343;42.896;23.912;2022-11-12T14:33:40;9.57;;;5.40;;
6614;SDS011;3343;42.896;23.912;2022-11-12T14:36:09;6.37;;;3.90;;
6614;SDS011;3343;42.896;23.912;2022-11-12T14:38:39;7.80;;;3.80;;
6614;SDS011;3343;42.896;23.912;2022-11-12T14:41:10;7.60;;;3.67;;
6614;SDS011;3343;42.896;23.912;2022-11-12T14:43:44;5.53;;;3.67;;
6614;SDS011;3343;42.896;23.912;2022-11-12T14:46:21;5.67;;;3.47;;
6614;SDS011;3343;42.896;23.912;2022-11-12T14:48:51;5.93;;;3.67;;
6614;SDS011;3343;42.896;23.912;2022-11-12T14:51:21;4.77;;;3.10;;
6614;SDS011;3343;42.896;23.912;2022-11-12T14:53:52;7.63;;;3.00;;
6614;SDS011;3343;42.896;23.912;2022-11-12T14:56:25;5.90;;;3.43;;
6614;SDS011;3343;42.896;23.912;2022-11-12T14:58:56;4.70;;;3.43;;
6614;SDS011;3343;42.896;23.912;2022-11-12T15:01:24;4.63;;;3.50;;
6614;SDS011;3343;42.896;23.912;2022-11-12T15:04:02;3.33;;;2.57;;
6614;SDS011;3343;42.896;23.912;2022-11-12T15:06:31;6.30;;;4.13;;
6614;SDS011;3343;42.896;23.912;2022-11-12T15:08:59;6.07;;;3.90;;
6614;SDS011;3343;42.896;23.912;2022-11-12T15:11:29;6.40;;;3.33;;
6614;SDS011;3343;42.896;23.912;2022-11-12T15:14:01;5.53;;;3.83;;
6614;SDS011;3343;42.896;23.912;2022-11-12T15:16:30;4.67;;;3.63;;
6614;SDS011;3343;42.896;23.912;2022-11-12T15:19:06;6.97;;;3.93;;
6614;SDS011;3343;42.896;23.912;2022-11-12T15:21:45;8.27;;;4.90;;
6614;SDS011;3343;42.896;23.912;2022-11-12T15:24:15;8.00;;;4.57;;
6614;SDS011;3343;42.896;23.912;2022-11-12T15:26:46;8.40;;;4.77;;
6614;SDS011;3343;42.896;23.912;2022-11-12T15:29:19;11.30;;;5.27;;
6614;SDS011;3343;42.896;23.912;2022-11-12T15:31:53;7.73;;;4.17;;
6614;SDS011;3343;42.896;23.912;2022-11-12T15:37:18;6.40;;;4.20;;
6614;SDS011;3343;42.896;23.912;2022-11-12T15:39:50;6.53;;;4.27;;